Pirane, Argentina
Current Conditions -  °F | °C
As of 5:00 PM on Saturday 25 Oct 2014 (Local Time) from SARF Reporting Station
Clear Clear  
Wind Chill: 95°   Ceiling: Unl
Heat Index: 95°   Visibility: 6mi
Dew Point: 61°   Wind: 9mph
Humidity: 32%   Direction: 160°SSE
Pressure: 29.74"   Gusts: NA
Location:  25.72°S, 59.1°W
Report Text: SARF 252000Z 16008KT 9999 NSC 35/16 Q1007
Loading
Personal Weather Stations






























Interactive Weather Map
Tropical Storm Tracking
New forecast layout! Learn more

10-Day Weather Forecast

Advertisements
Track Severe Weather on mobile